Time;durP1;ratioP1;P1;durP2;ratioP2;P2;SDS_P1;SDS_P2;PMS_P1;PMS_P2;Temp;Humidity;BMP_temperature;BMP_pressure;BME280_temperature;BME280_humidity;BME280_pressure;Samples;Min_cycle;Max_cycle;Signal;HPM_P1;HPM_P2
2024/02/09 00:01:48;;;;;;;0.10;0.10;;;;;;;0.67;90.43;99253.28;15763393;28;20051;-45
2024/02/09 00:09:31;;;;;;;0.00;0.00;;;;;;;0.38;90.53;99240.91;15773579;28;20036;-46
2024/02/09 00:45:12;;;;;;;0.05;0.05;;;;;;;0.61;90.38;99205.69;15785196;28;20094;-48
2024/02/09 00:52:51;;;;;;;0.03;0.03;;;;;;;0.50;90.71;99191.13;15769029;28;20044;-44
2024/02/09 01:00:31;;;;;;;0.00;0.00;;;;;;;0.61;90.16;99180.09;15788159;28;20318;-46
2024/02/09 01:08:08;;;;;;;0.10;0.10;;;;;;;0.53;92.09;99192.59;15759293;28;20032;-44
2024/02/09 03:05:57;;;;;;;0.00;0.00;;;;;;;0.61;93.03;99012.97;15841966;28;20075;-69
2024/02/09 03:13:34;;;;;;;0.00;0.00;;;;;;;0.64;91.37;98991.44;15859823;28;20031;-69
2024/02/09 03:21:12;;;;;;;0.00;0.00;;;;;;;0.83;90.54;98996.09;15821598;28;20040;-69
2024/02/09 03:28:45;;;;;;;0.00;0.00;;;;;;;0.98;90.80;98993.38;15848538;27;20530;-69
2024/02/09 03:36:22;;;;;;;0.00;0.00;;;;;;;0.81;91.14;98990.19;15859575;22;20519;-55
2024/02/09 03:44:03;;;;;;;1.27;0.90;;;;;;;1.02;90.66;98984.03;15867173;27;20039;-54
2024/02/09 03:51:41;;;;;;;0.00;0.00;;;;;;;0.92;90.90;98981.72;15885020;27;20065;-51
2024/02/09 03:59:15;;;;;;;0.00;0.00;;;;;;;0.96;91.02;98992.75;15894897;27;20105;-53
2024/02/09 04:06:51;;;;;;;0.00;0.00;;;;;;;0.96;90.85;98977.72;15852717;27;20055;-53
2024/02/09 04:14:27;;;;;;;0.00;0.00;;;;;;;0.91;91.62;98977.47;15866591;27;20076;-50
2024/02/09 04:22:05;;;;;;;0.00;0.00;;;;;;;0.91;91.08;98966.09;15861793;27;20035;-54
2024/02/09 04:29:38;;;;;;;0.47;0.47;;;;;;;0.93;91.72;98950.84;15850288;27;20043;-52
2024/02/09 04:37:15;;;;;;;0.30;0.30;;;;;;;0.88;92.22;98932.13;15874698;27;20516;-50
2024/02/09 04:44:52;;;;;;;0.00;0.00;;;;;;;1.03;91.82;98917.00;15876090;28;20070;-52
2024/02/09 04:52:27;;;;;;;0.20;0.20;;;;;;;0.92;91.90;98897.22;15870559;28;20046;-53
2024/02/09 05:00:02;;;;;;;0.00;0.00;;;;;;;1.03;91.99;98877.38;15872813;28;20043;-49
2024/02/09 05:07:38;;;;;;;0.00;0.00;;;;;;;0.98;92.22;98863.94;15855214;27;20054;-51
2024/02/09 05:15:17;;;;;;;0.00;0.00;;;;;;;1.33;91.67;98850.69;15908030;27;20526;-48
2024/02/09 05:22:52;;;;;;;0.00;0.00;;;;;;;1.05;92.30;98842.84;15907157;27;20344;-51
2024/02/09 05:30:29;;;;;;;0.00;0.00;;;;;;;1.01;90.93;98837.13;15871052;27;20039;-53
2024/02/09 05:38:06;;;;;;;0.10;0.10;;;;;;;1.03;91.67;98821.91;15844719;28;20118;-53
2024/02/09 05:45:53;;;;;;;0.00;0.00;;;;;;;0.89;92.19;98776.13;15795179;28;20052;-52
2024/02/09 05:53:29;;;;;;;0.00;0.00;;;;;;;1.13;92.02;98803.84;15815557;28;20100;-52
2024/02/09 06:01:03;;;;;;;0.00;0.00;;;;;;;1.08;91.94;98790.44;15809812;28;20036;-49
2024/02/09 06:08:38;;;;;;;0.30;0.30;;;;;;;1.16;91.61;98794.72;15799635;28;20043;-54
2024/02/09 06:16:12;;;;;;;0.00;0.00;;;;;;;1.13;91.84;98772.16;15809701;28;20067;-51
2024/02/09 06:23:51;;;;;;;0.00;0.00;;;;;;;1.06;91.60;98788.97;15799541;28;20101;-50
2024/02/09 06:31:25;;;;;;;0.00;0.00;;;;;;;1.19;91.64;98789.84;15805125;28;20040;-50
2024/02/09 06:39:06;;;;;;;0.00;0.00;;;;;;;1.17;91.50;98773.41;15837115;28;20044;-50
2024/02/09 06:46:42;;;;;;;0.00;0.00;;;;;;;1.16;91.52;98765.63;15855214;27;20110;-52
2024/02/09 06:54:17;;;;;;;0.98;0.45;;;;;;;1.35;92.14;98780.75;15859849;27;20062;-51
2024/02/09 07:01:51;;;;;;;0.00;0.00;;;;;;;1.38;90.63;98795.41;15878466;27;20040;-51
2024/02/09 07:09:26;;;;;;;0.00;0.00;;;;;;;1.30;91.54;98767.31;15883919;27;20047;-51
2024/02/09 07:17:00;;;;;;;0.00;0.00;;;;;;;1.40;91.19;98757.19;15873631;27;20122;-50
2024/02/09 07:24:36;;;;;;;0.00;0.00;;;;;;;0.93;92.06;98706.06;15877168;27;20101;-50
2024/02/09 07:32:10;;;;;;;0.00;0.00;;;;;;;1.43;91.47;98750.69;15879355;27;20063;-54
2024/02/09 07:39:45;;;;;;;0.00;0.00;;;;;;;1.53;92.32;98743.16;15865478;27;20044;-51
2024/02/09 07:47:20;;;;;;;0.00;0.00;;;;;;;1.28;91.67;98729.72;15878990;27;20100;-51
2024/02/09 07:54:55;;;;;;;0.00;0.00;;;;;;;1.32;91.80;98720.38;15880981;27;20041;-51
2024/02/09 08:02:30;;;;;;;0.00;0.00;;;;;;;1.35;91.85;98730.53;15849674;27;20053;-49
2024/02/09 08:10:08;;;;;;;0.08;0.08;;;;;;;1.45;91.91;98728.34;15877139;27;20040;-52
2024/02/09 08:17:47;;;;;;;0.00;0.00;;;;;;;1.57;91.60;98709.22;15877740;27;20500;-52
2024/02/09 08:25:22;;;;;;;0.22;0.22;;;;;;;1.41;92.21;98705.94;15871793;27;20042;-52
2024/02/09 08:32:56;;;;;;;0.10;0.10;;;;;;;1.74;90.66;98702.53;15829150;28;20047;-53
2024/02/09 08:40:31;;;;;;;0.20;0.20;;;;;;;1.62;91.66;98690.91;15877088;27;20554;-52
2024/02/09 08:48:06;;;;;;;0.05;0.05;;;;;;;1.60;92.70;98687.66;15883307;28;20039;-51
2024/02/09 08:55:40;;;;;;;0.10;0.10;;;;;;;1.72;91.26;98681.56;15862512;28;20088;-52
2024/02/09 09:03:18;;;;;;;0.00;0.00;;;;;;;1.91;90.92;98669.38;15849545;28;20039;-51
2024/02/09 09:10:54;;;;;;;0.13;0.10;;;;;;;1.96;89.94;98658.97;15860337;28;20054;-52
2024/02/09 09:18:28;;;;;;;0.05;0.05;;;;;;;1.99;90.50;98652.44;15906765;27;20106;-52
2024/02/09 09:26:03;;;;;;;0.00;0.00;;;;;;;1.86;91.74;98650.63;15903814;28;20043;-51
2024/02/09 09:33:37;;;;;;;0.00;0.00;;;;;;;2.01;91.57;98643.28;15861933;28;20040;-52
2024/02/09 09:41:13;;;;;;;0.00;0.00;;;;;;;2.32;89.43;98656.84;15847144;28;20104;-52
2024/02/09 09:48:47;;;;;;;0.03;0.03;;;;;;;1.99;91.82;98655.91;15893469;27;20043;-52
2024/02/09 09:56:25;;;;;;;0.20;0.20;;;;;;;2.60;90.46;98645.94;15932736;22;20161;-47
2024/02/09 10:04:00;;;;;;;0.00;0.00;;;;;;;2.41;89.82;98637.06;15915334;27;20050;-45
2024/02/09 10:11:44;;;;;;;0.00;0.00;;;;;;;2.61;90.43;98640.47;15922942;27;20484;-44
2024/02/09 10:19:18;;;;;;;0.10;0.10;;;;;;;2.51;90.99;98611.75;15905671;27;20447;-47
2024/02/09 10:26:54;;;;;;;0.00;0.00;;;;;;;2.70;90.65;98620.63;15922300;27;20186;-44
2024/02/09 10:34:29;;;;;;;0.00;0.00;;;;;;;2.67;91.01;98620.25;15903958;27;20483;-45
2024/02/09 10:42:07;;;;;;;0.22;0.22;;;;;;;2.64;91.39;98618.03;15922771;27;20470;-44
2024/02/09 10:49:44;;;;;;;0.00;0.00;;;;;;;2.96;91.30;98613.59;15912384;27;20535;-44
2024/02/09 10:57:20;;;;;;;0.00;0.00;;;;;;;2.96;90.79;98601.13;15923935;27;20552;-46
2024/02/09 11:04:57;;;;;;;3.63;2.05;;;;;;;3.20;90.45;98590.78;15911802;27;20047;-43
2024/02/09 11:12:32;;;;;;;0.10;0.10;;;;;;;3.26;90.53;98592.56;15925381;27;20118;-46
2024/02/09 11:20:10;;;;;;;0.10;0.10;;;;;;;3.69;88.86;98586.50;15923879;27;20190;-45
2024/02/09 11:27:51;;;;;;;0.30;0.30;;;;;;;3.91;88.93;98587.69;15922562;27;20043;-45
2024/02/09 11:35:29;;;;;;;0.85;0.85;;;;;;;3.85;89.71;98583.28;15859037;28;20043;-48
2024/02/09 11:43:04;;;;;;;0.10;0.10;;;;;;;4.09;89.59;98584.25;15859113;28;20096;-49
2024/02/09 11:51:20;;;;;;;0.10;0.10;;;;;;;4.32;89.24;98576.41;15860226;27;20375;-47
2024/02/09 11:58:56;;;;;;;0.38;0.38;;;;;;;4.69;87.99;98579.03;15841261;28;20049;-42
2024/02/09 12:06:30;;;;;;;0.88;0.85;;;;;;;4.92;85.86;98567.66;15889040;27;20066;-50
2024/02/09 12:14:05;;;;;;;0.10;0.10;;;;;;;5.41;85.96;98551.56;15919998;27;20039;-49
2024/02/09 12:21:41;;;;;;;0.10;0.10;;;;;;;4.86;88.85;98552.63;15915813;27;20498;-46
2024/02/09 12:29:19;;;;;;;0.75;0.75;;;;;;;5.58;86.69;98555.16;15919566;27;20038;-50
2024/02/09 12:36:56;;;;;;;0.88;0.52;;;;;;;5.02;88.84;98549.31;15901743;27;20043;-47
2024/02/09 12:44:34;;;;;;;0.08;0.08;;;;;;;4.92;89.20;98549.06;15919473;27;20039;-48
2024/02/09 12:52:11;;;;;;;0.88;0.38;;;;;;;5.41;87.58;98551.56;15910656;27;20476;-48
2024/02/09 12:59:46;;;;;;;0.20;0.20;;;;;;;5.49;88.36;98545.91;15919294;28;20095;-48
2024/02/09 13:07:19;;;;;;;0.00;0.00;;;;;;;5.46;87.52;98539.19;15911684;28;20054;-47
2024/02/09 13:14:55;;;;;;;0.00;0.00;;;;;;;5.37;89.42;98533.41;15917318;28;20035;-45
2024/02/09 13:22:28;;;;;;;0.32;0.32;;;;;;;5.30;89.93;98523.91;15917393;28;20118;-43
2024/02/09 13:30:07;;;;;;;0.57;0.57;;;;;;;5.38;88.41;98529.69;15908199;27;20043;-48
2024/02/09 13:37:41;;;;;;;0.43;0.43;;;;;;;5.75;88.62;98524.13;15927283;27;20043;-49
2024/02/09 13:45:17;;;;;;;0.20;0.20;;;;;;;5.58;90.02;98517.91;15922173;27;20050;-48
2024/02/09 13:52:54;;;;;;;2.55;0.95;;;;;;;5.71;90.05;98511.53;15865102;28;20047;-45
2024/02/09 14:00:30;;;;;;;0.00;0.00;;;;;;;5.88;89.08;98502.59;15864322;28;20035;-46
2024/02/09 14:08:04;;;;;;;0.32;0.32;;;;;;;5.72;90.10;98518.47;15909471;27;20042;-45
2024/02/09 14:15:40;;;;;;;0.10;0.10;;;;;;;5.60;90.56;98516.63;15927872;27;20087;-49
2024/02/09 14:23:13;;;;;;;0.57;0.57;;;;;;;5.85;90.62;98496.94;15926924;27;20035;-45
2024/02/09 14:30:49;;;;;;;0.35;0.35;;;;;;;5.91;90.25;98501.31;15891400;27;20077;-45
2024/02/09 14:38:23;;;;;;;1.05;0.60;;;;;;;6.08;88.69;98498.75;15908690;27;20199;-46
2024/02/09 14:45:59;;;;;;;;;;;;;;;6.39;88.02;98516.97;15915890;27;20298;-45
2024/02/09 14:53:46;;;;;;;0.10;0.10;;;;;;;6.36;88.52;98505.97;15902492;27;20034;-45
2024/02/09 15:01:23;;;;;;;0.75;0.60;;;;;;;6.52;86.96;98499.03;15923465;27;20066;-46
2024/02/09 15:08:57;;;;;;;0.00;0.00;;;;;;;6.41;88.66;98500.72;15915127;27;20047;-48
2024/02/09 15:16:33;;;;;;;0.17;0.17;;;;;;;6.30;89.73;98494.41;15906622;27;20104;-47
2024/02/09 15:24:07;;;;;;;1.35;0.60;;;;;;;6.57;88.68;98502.59;15907242;27;20134;-49
2024/02/09 15:31:48;;;;;;;1.05;0.75;;;;;;;6.96;87.04;98500.09;15922185;27;20414;-47
2024/02/09 15:39:23;;;;;;;0.65;0.65;;;;;;;6.70;87.00;98488.19;15851543;28;20047;-47
2024/02/09 15:46:59;;;;;;;0.68;0.68;;;;;;;6.79;87.11;98493.94;15861386;27;20125;-46
2024/02/09 15:54:33;;;;;;;0.98;0.73;;;;;;;6.84;87.30;98492.16;15864107;22;20137;-47
2024/02/09 16:02:09;;;;;;;0.28;0.22;;;;;;;7.13;85.94;98497.41;15862369;28;20294;-42
2024/02/09 16:09:45;;;;;;;2.00;0.55;;;;;;;7.40;84.92;98486.88;15848019;28;20130;-46
2024/02/09 16:17:20;;;;;;;0.45;0.45;;;;;;;7.27;84.03;98489.91;15860378;28;20047;-46
2024/02/09 16:24:56;;;;;;;3.00;1.88;;;;;;;7.00;85.14;98484.44;15843018;28;20205;-48
2024/02/09 16:32:32;;;;;;;0.28;0.28;;;;;;;7.06;85.94;98489.59;15860613;28;20050;-45
2024/02/09 16:40:06;;;;;;;0.40;0.40;;;;;;;7.31;84.49;98488.34;15860725;28;20035;-44
2024/02/09 16:47:41;;;;;;;0.45;0.22;;;;;;;7.25;84.95;98503.50;15838523;28;20043;-45
2024/02/09 16:55:18;;;;;;;0.15;0.15;;;;;;;7.34;84.65;98506.56;15859489;28;20476;-45
2024/02/09 17:02:53;;;;;;;0.10;0.10;;;;;;;7.50;84.27;98497.72;15867675;28;20404;-47
2024/02/09 17:10:30;;;;;;;0.73;0.68;;;;;;;7.46;84.85;98493.09;15845748;28;20053;-43
2024/02/09 17:18:07;;;;;;;1.13;1.10;;;;;;;7.52;83.60;98497.50;15870906;28;20542;-44
2024/02/09 17:25:41;;;;;;;1.02;0.40;;;;;;;7.82;82.75;98497.88;15868792;28;20469;-47
2024/02/09 17:33:17;;;;;;;;;;;;;;;7.71;84.07;98498.81;15850242;28;20059;-45
2024/02/09 17:40:51;;;;;;;0.30;0.30;;;;;;;7.63;84.19;98497.38;15871843;28;19946;-45
2024/02/09 17:48:25;;;;;;;0.10;0.10;;;;;;;7.35;86.43;98506.31;15869500;28;20044;-48
2024/02/09 17:55:59;;;;;;;2.05;0.73;;;;;;;7.59;86.00;98508.78;15851230;27;20051;-46
2024/02/09 18:03:37;;;;;;;0.73;0.47;;;;;;;7.83;84.79;98509.38;15855894;28;20044;-49
2024/02/09 18:11:12;;;;;;;2.17;1.33;;;;;;;8.00;83.94;98504.00;15867278;28;20047;-45
2024/02/09 18:18:47;;;;;;;0.77;0.52;;;;;;;8.17;82.66;98502.88;15849807;28;20066;-44
2024/02/09 18:26:24;;;;;;;0.40;0.40;;;;;;;7.77;82.29;98462.31;15866107;28;20032;-45
2024/02/09 18:33:58;;;;;;;0.10;0.10;;;;;;;8.18;81.95;98517.84;15865189;28;20065;-45
2024/02/09 18:41:31;;;;;;;0.35;0.30;;;;;;;8.18;81.97;98519.72;15847379;28;20051;-46
2024/02/09 18:49:06;;;;;;;;;;;;;;;7.57;85.74;98518.91;15862296;28;20450;-49
2024/02/09 18:56:40;;;;;;;0.03;0.03;;;;;;;8.39;88.50;98510.09;15862378;28;20372;-46
2024/02/09 19:04:16;;;;;;;0.03;0.03;;;;;;;8.91;87.46;98506.88;15840235;28;20055;-50
2024/02/09 19:12:08;;;;;;;0.80;0.52;;;;;;;9.17;84.91;98507.88;15865734;28;20052;-47
2024/02/09 19:19:43;;;;;;;0.13;0.13;;;;;;;9.17;84.33;98495.31;15864440;28;20082;-49
2024/02/09 19:27:17;;;;;;;2.90;1.55;;;;;;;9.12;83.31;98508.66;15862563;28;20486;-45
2024/02/09 19:34:52;;;;;;;0.70;0.70;;;;;;;9.03;83.13;98509.38;15864103;28;20093;-47
2024/02/09 19:42:27;;;;;;;0.82;0.28;;;;;;;9.05;83.88;98516.09;15862217;28;20031;-48
2024/02/09 19:50:01;;;;;;;1.10;0.50;;;;;;;8.96;82.81;98506.13;15832014;28;20066;-45
2024/02/09 19:57:35;;;;;;;1.15;0.98;;;;;;;8.88;82.37;98513.53;15828353;28;20565;-48
2024/02/09 20:05:11;;;;;;;0.05;0.05;;;;;;;9.01;83.44;98516.88;15813109;28;20040;-48
2024/02/09 20:12:45;;;;;;;2.25;1.65;;;;;;;9.43;84.36;98524.97;15857735;28;20061;-47
2024/02/09 20:20:20;;;;;;;0.08;0.08;;;;;;;9.45;83.13;98526.31;15860535;28;20322;-44
2024/02/09 20:27:55;;;;;;;4.03;0.93;;;;;;;9.37;83.10;98529.47;15860188;28;20047;-46
2024/02/09 20:35:30;;;;;;;1.55;1.05;;;;;;;9.33;83.08;98530.25;15841361;28;20050;-47
2024/02/09 20:43:04;;;;;;;0.30;0.20;;;;;;;9.27;82.60;98542.75;15857522;28;20139;-45
2024/02/09 20:50:43;;;;;;;0.20;0.20;;;;;;;9.27;82.65;98539.28;15858886;28;20036;-48
2024/02/09 20:58:25;;;;;;;0.00;0.00;;;;;;;9.24;84.16;98547.84;15858923;28;20051;-44
2024/02/09 21:06:01;;;;;;;0.63;0.60;;;;;;;9.32;85.60;98558.06;15832317;28;20048;-44
2024/02/09 21:13:36;;;;;;;0.35;0.35;;;;;;;9.60;84.62;98559.59;15859323;28;20119;-44
2024/02/09 21:21:11;;;;;;;0.30;0.30;;;;;;;9.39;86.03;98561.34;15855885;28;20052;-46
2024/02/09 21:28:45;;;;;;;0.88;0.55;;;;;;;9.61;85.98;98566.59;15854351;28;20388;-49
2024/02/09 21:36:21;;;;;;;0.80;0.80;;;;;;;9.95;84.67;98562.53;15858041;28;20042;-46
2024/02/09 21:43:56;;;;;;;0.00;0.00;;;;;;;9.87;85.08;98562.19;15839068;28;20179;-47
2024/02/09 21:51:31;;;;;;;0.47;0.47;;;;;;;9.87;84.71;98562.19;15860978;22;20044;-48
2024/02/09 21:59:10;;;;;;;0.22;0.22;;;;;;;9.75;84.88;98572.31;15744522;28;20067;-46
2024/02/09 22:06:49;;;;;;;0.82;0.82;;;;;;;9.87;84.96;98562.19;15723271;28;20553;-46
2024/02/09 22:14:23;;;;;;;0.28;0.20;;;;;;;9.79;85.24;98573.41;15711495;28;20040;-49
2024/02/09 22:21:59;;;;;;;0.10;0.10;;;;;;;9.82;84.74;98562.97;15708498;28;20529;-48
2024/02/09 22:29:33;;;;;;;0.22;0.22;;;;;;;10.03;83.48;98547.84;15747440;28;20036;-50
2024/02/09 22:37:10;;;;;;;0.13;0.13;;;;;;;9.80;82.29;98554.41;15744222;28;20508;-48
2024/02/09 22:44:53;;;;;;;0.35;0.30;;;;;;;9.62;82.18;98570.88;15735960;28;20091;-51
2024/02/09 22:52:30;;;;;;;2.17;0.60;;;;;;;9.57;82.57;98568.97;15716855;28;20087;-50
2024/02/09 23:00:14;;;;;;;0.17;0.17;;;;;;;9.56;83.20;98572.72;15741818;28;20040;-53
2024/02/09 23:07:49;;;;;;;0.03;0.03;;;;;;;9.31;85.78;98575.19;15727083;28;20288;-50
2024/02/09 23:15:25;;;;;;;0.25;0.20;;;;;;;9.59;83.96;98571.38;15717548;28;20040;-48
2024/02/09 23:23:02;;;;;;;0.05;0.05;;;;;;;9.36;86.46;98570.69;15720615;28;20040;-48
2024/02/09 23:30:37;;;;;;;0.10;0.10;;;;;;;9.28;86.82;98571.16;15738697;28;20040;-48
2024/02/09 23:38:14;;;;;;;0.13;0.13;;;;;;;9.50;85.95;98579.09;15705645;28;20059;-49
2024/02/09 23:45:51;;;;;;;0.00;0.00;;;;;;;9.39;86.76;98580.09;15704842;28;20190;-51
2024/02/09 23:53:26;;;;;;;0.00;0.00;;;;;;;9.59;86.19;98577.56;15735682;28;20045;-51
